sensor_id;sensor_type;location;lat;lon;timestamp;temperature;humidity
52656;SHT85;35474;51.032;6.998;2022-07-23T00:00:34;18.53;83.93
52656;SHT85;35474;51.032;6.998;2022-07-23T00:03:05;18.32;85.65
52656;SHT85;35474;51.032;6.998;2022-07-23T00:05:32;18.06;87.12
52656;SHT85;35474;51.032;6.998;2022-07-23T00:08:02;17.98;88.34
52656;SHT85;35474;51.032;6.998;2022-07-23T00:10:28;17.81;89.10
52656;SHT85;35474;51.032;6.998;2022-07-23T00:12:55;17.78;89.36
52656;SHT85;35474;51.032;6.998;2022-07-23T00:15:22;17.68;90.25
52656;SHT85;35474;51.032;6.998;2022-07-23T00:17:48;17.64;90.07
52656;SHT85;35474;51.032;6.998;2022-07-23T00:20:15;17.61;89.82
52656;SHT85;35474;51.032;6.998;2022-07-23T00:22:48;17.57;90.08
52656;SHT85;35474;51.032;6.998;2022-07-23T00:25:17;17.58;90.47
52656;SHT85;35474;51.032;6.998;2022-07-23T00:27:59;17.53;90.73
52656;SHT85;35474;51.032;6.998;2022-07-23T00:30:26;17.51;90.79
52656;SHT85;35474;51.032;6.998;2022-07-23T00:32:56;17.64;90.70
52656;SHT85;35474;51.032;6.998;2022-07-23T00:35:28;17.57;89.88
52656;SHT85;35474;51.032;6.998;2022-07-23T00:37:56;17.54;89.98
52656;SHT85;35474;51.032;6.998;2022-07-23T00:40:23;17.47;90.02
52656;SHT85;35474;51.032;6.998;2022-07-23T00:42:51;17.51;90.17
52656;SHT85;35474;51.032;6.998;2022-07-23T00:45:17;17.53;90.62
52656;SHT85;35474;51.032;6.998;2022-07-23T00:47:44;17.59;90.34
52656;SHT85;35474;51.032;6.998;2022-07-23T00:50:13;17.50;89.98
52656;SHT85;35474;51.032;6.998;2022-07-23T00:52:40;17.43;90.30
52656;SHT85;35474;51.032;6.998;2022-07-23T00:55:08;17.53;90.44
52656;SHT85;35474;51.032;6.998;2022-07-23T00:57:36;17.43;90.01
52656;SHT85;35474;51.032;6.998;2022-07-23T01:00:05;17.38;90.29
52656;SHT85;35474;51.032;6.998;2022-07-23T01:02:34;17.33;90.36
52656;SHT85;35474;51.032;6.998;2022-07-23T01:05:00;17.30;90.56
52656;SHT85;35474;51.032;6.998;2022-07-23T01:07:27;17.10;90.27
52656;SHT85;35474;51.032;6.998;2022-07-23T01:09:54;16.99;90.60
52656;SHT85;35474;51.032;6.998;2022-07-23T01:12:21;16.96;90.44
52656;SHT85;35474;51.032;6.998;2022-07-23T01:14:53;17.06;90.49
52656;SHT85;35474;51.032;6.998;2022-07-23T01:17:23;17.13;90.64
52656;SHT85;35474;51.032;6.998;2022-07-23T01:19:49;17.11;90.83
52656;SHT85;35474;51.032;6.998;2022-07-23T01:22:18;17.19;91.12
52656;SHT85;35474;51.032;6.998;2022-07-23T01:24:46;17.17;91.13
52656;SHT85;35474;51.032;6.998;2022-07-23T01:27:13;17.40;91.52
52656;SHT85;35474;51.032;6.998;2022-07-23T01:29:40;17.55;90.23
52656;SHT85;35474;51.032;6.998;2022-07-23T01:32:06;17.43;90.34
52656;SHT85;35474;51.032;6.998;2022-07-23T01:34:33;17.38;90.49
52656;SHT85;35474;51.032;6.998;2022-07-23T01:36:59;17.59;90.32
52656;SHT85;35474;51.032;6.998;2022-07-23T01:39:26;17.62;89.91
52656;SHT85;35474;51.032;6.998;2022-07-23T01:41:53;17.72;90.20
52656;SHT85;35474;51.032;6.998;2022-07-23T01:44:19;17.69;89.57
52656;SHT85;35474;51.032;6.998;2022-07-23T01:46:46;17.69;89.42
52656;SHT85;35474;51.032;6.998;2022-07-23T01:49:13;17.72;89.06
52656;SHT85;35474;51.032;6.998;2022-07-23T01:51:39;17.57;89.06
52656;SHT85;35474;51.032;6.998;2022-07-23T01:54:30;17.53;88.56
52656;SHT85;35474;51.032;6.998;2022-07-23T01:56:58;17.43;89.06
52656;SHT85;35474;51.032;6.998;2022-07-23T01:59:25;17.43;89.58
52656;SHT85;35474;51.032;6.998;2022-07-23T02:01:53;17.43;89.27
52656;SHT85;35474;51.032;6.998;2022-07-23T02:04:21;17.47;89.40
52656;SHT85;35474;51.032;6.998;2022-07-23T02:06:49;17.62;89.31
52656;SHT85;35474;51.032;6.998;2022-07-23T02:09:16;17.64;89.17
52656;SHT85;35474;51.032;6.998;2022-07-23T02:11:43;17.55;89.63
52656;SHT85;35474;51.032;6.998;2022-07-23T02:14:10;17.64;88.90
52656;SHT85;35474;51.032;6.998;2022-07-23T02:16:36;17.83;88.33
52656;SHT85;35474;51.032;6.998;2022-07-23T02:19:03;17.71;88.50
52656;SHT85;35474;51.032;6.998;2022-07-23T02:21:30;17.59;88.70
52656;SHT85;35474;51.032;6.998;2022-07-23T02:23:57;17.67;88.11
52656;SHT85;35474;51.032;6.998;2022-07-23T02:26:23;17.54;88.96
52656;SHT85;35474;51.032;6.998;2022-07-23T02:28:50;17.53;89.44
52656;SHT85;35474;51.032;6.998;2022-07-23T02:31:16;17.53;88.99
52656;SHT85;35474;51.032;6.998;2022-07-23T02:33:43;17.47;89.49
52656;SHT85;35474;51.032;6.998;2022-07-23T02:36:09;17.37;89.65
52656;SHT85;35474;51.032;6.998;2022-07-23T02:38:36;17.37;90.26
52656;SHT85;35474;51.032;6.998;2022-07-23T02:41:03;17.36;90.03
52656;SHT85;35474;51.032;6.998;2022-07-23T02:43:29;17.41;89.65
52656;SHT85;35474;51.032;6.998;2022-07-23T02:45:56;17.47;89.36
52656;SHT85;35474;51.032;6.998;2022-07-23T02:48:22;17.40;89.52
52656;SHT85;35474;51.032;6.998;2022-07-23T02:50:49;17.30;89.98
52656;SHT85;35474;51.032;6.998;2022-07-23T02:53:15;17.30;90.32
52656;SHT85;35474;51.032;6.998;2022-07-23T02:55:42;17.20;90.28
52656;SHT85;35474;51.032;6.998;2022-07-23T02:58:09;17.19;90.13
52656;SHT85;35474;51.032;6.998;2022-07-23T03:00:35;17.03;90.42
52656;SHT85;35474;51.032;6.998;2022-07-23T03:03:02;16.92;90.69
52656;SHT85;35474;51.032;6.998;2022-07-23T03:05:28;16.88;91.20
52656;SHT85;35474;51.032;6.998;2022-07-23T03:07:55;16.85;91.33
52656;SHT85;35474;51.032;6.998;2022-07-23T03:10:21;16.85;91.68
52656;SHT85;35474;51.032;6.998;2022-07-23T03:12:48;16.82;91.81
52656;SHT85;35474;51.032;6.998;2022-07-23T03:15:14;16.83;91.81
52656;SHT85;35474;51.032;6.998;2022-07-23T03:17:41;16.85;91.86
52656;SHT85;35474;51.032;6.998;2022-07-23T03:20:08;16.76;92.00
52656;SHT85;35474;51.032;6.998;2022-07-23T03:22:35;16.67;91.93
52656;SHT85;35474;51.032;6.998;2022-07-23T03:25:02;16.62;92.02
52656;SHT85;35474;51.032;6.998;2022-07-23T03:27:29;16.64;92.19
52656;SHT85;35474;51.032;6.998;2022-07-23T03:29:57;16.62;92.52
52656;SHT85;35474;51.032;6.998;2022-07-23T03:32:25;16.59;92.63
52656;SHT85;35474;51.032;6.998;2022-07-23T03:34:53;16.55;92.83
52656;SHT85;35474;51.032;6.998;2022-07-23T03:37:20;16.61;92.99
52656;SHT85;35474;51.032;6.998;2022-07-23T03:39:47;16.65;92.96
52656;SHT85;35474;51.032;6.998;2022-07-23T03:42:14;16.61;92.88
52656;SHT85;35474;51.032;6.998;2022-07-23T03:44:40;16.55;92.84
52656;SHT85;35474;51.032;6.998;2022-07-23T03:47:07;16.49;92.60
52656;SHT85;35474;51.032;6.998;2022-07-23T03:49:33;16.42;92.57
52656;SHT85;35474;51.032;6.998;2022-07-23T03:52:00;16.45;92.72
52656;SHT85;35474;51.032;6.998;2022-07-23T03:54:27;16.44;92.69
52656;SHT85;35474;51.032;6.998;2022-07-23T03:56:53;16.38;92.90
52656;SHT85;35474;51.032;6.998;2022-07-23T03:59:20;16.47;92.98
52656;SHT85;35474;51.032;6.998;2022-07-23T04:01:49;16.34;93.00
52656;SHT85;35474;51.032;6.998;2022-07-23T04:04:16;16.27;92.94
52656;SHT85;35474;51.032;6.998;2022-07-23T04:06:43;16.31;92.95
52656;SHT85;35474;51.032;6.998;2022-07-23T04:09:09;16.31;92.99
52656;SHT85;35474;51.032;6.998;2022-07-23T04:11:36;16.28;92.91
52656;SHT85;35474;51.032;6.998;2022-07-23T04:14:03;16.30;93.05
52656;SHT85;35474;51.032;6.998;2022-07-23T04:16:29;16.35;92.59
52656;SHT85;35474;51.032;6.998;2022-07-23T04:18:57;16.30;92.86
52656;SHT85;35474;51.032;6.998;2022-07-23T04:21:25;16.28;92.58
52656;SHT85;35474;51.032;6.998;2022-07-23T04:23:52;16.34;92.48
52656;SHT85;35474;51.032;6.998;2022-07-23T04:26:18;16.41;92.56
52656;SHT85;35474;51.032;6.998;2022-07-23T04:28:45;16.41;92.38
52656;SHT85;35474;51.032;6.998;2022-07-23T04:31:11;16.38;92.10
52656;SHT85;35474;51.032;6.998;2022-07-23T04:33:38;16.44;92.10
52656;SHT85;35474;51.032;6.998;2022-07-23T04:36:05;16.35;92.26
52656;SHT85;35474;51.032;6.998;2022-07-23T04:38:31;16.35;92.28
52656;SHT85;35474;51.032;6.998;2022-07-23T04:40:58;16.40;92.43
52656;SHT85;35474;51.032;6.998;2022-07-23T04:43:25;16.44;92.38
52656;SHT85;35474;51.032;6.998;2022-07-23T04:45:52;16.41;91.91
52656;SHT85;35474;51.032;6.998;2022-07-23T04:48:18;16.54;91.89
52656;SHT85;35474;51.032;6.998;2022-07-23T04:50:45;16.47;91.63
52656;SHT85;35474;51.032;6.998;2022-07-23T04:53:12;16.45;91.75
52656;SHT85;35474;51.032;6.998;2022-07-23T04:55:39;16.45;92.05
52656;SHT85;35474;51.032;6.998;2022-07-23T04:58:06;16.47;91.84
52656;SHT85;35474;51.032;6.998;2022-07-23T05:00:32;16.51;91.73
52656;SHT85;35474;51.032;6.998;2022-07-23T05:02:59;16.49;91.79
52656;SHT85;35474;51.032;6.998;2022-07-23T05:05:25;16.54;91.22
52656;SHT85;35474;51.032;6.998;2022-07-23T05:07:52;16.62;91.24
52656;SHT85;35474;51.032;6.998;2022-07-23T05:10:18;16.73;90.66
52656;SHT85;35474;51.032;6.998;2022-07-23T05:12:45;16.78;90.77
52656;SHT85;35474;51.032;6.998;2022-07-23T05:15:12;16.76;90.76
52656;SHT85;35474;51.032;6.998;2022-07-23T05:17:38;16.76;90.79
52656;SHT85;35474;51.032;6.998;2022-07-23T05:20:05;16.83;90.75
52656;SHT85;35474;51.032;6.998;2022-07-23T05:22:32;16.92;90.49
52656;SHT85;35474;51.032;6.998;2022-07-23T05:24:59;16.88;90.43
52656;SHT85;35474;51.032;6.998;2022-07-23T05:27:26;16.93;90.44
52656;SHT85;35474;51.032;6.998;2022-07-23T05:29:52;16.98;90.30
52656;SHT85;35474;51.032;6.998;2022-07-23T05:32:19;17.03;90.33
52656;SHT85;35474;51.032;6.998;2022-07-23T05:34:45;17.13;90.12
52656;SHT85;35474;51.032;6.998;2022-07-23T05:37:12;17.09;89.99
52656;SHT85;35474;51.032;6.998;2022-07-23T05:39:38;17.23;89.91
52656;SHT85;35474;51.032;6.998;2022-07-23T05:42:05;17.20;89.70
52656;SHT85;35474;51.032;6.998;2022-07-23T05:44:32;17.31;89.96
52656;SHT85;35474;51.032;6.998;2022-07-23T05:47:00;17.38;89.47
52656;SHT85;35474;51.032;6.998;2022-07-23T05:49:27;17.44;89.79
52656;SHT85;35474;51.032;6.998;2022-07-23T05:51:54;17.46;89.44
52656;SHT85;35474;51.032;6.998;2022-07-23T05:54:20;17.51;89.08
52656;SHT85;35474;51.032;6.998;2022-07-23T05:56:47;17.65;88.53
52656;SHT85;35474;51.032;6.998;2022-07-23T05:59:13;17.69;88.72
52656;SHT85;35474;51.032;6.998;2022-07-23T06:01:41;17.69;88.08
52656;SHT85;35474;51.032;6.998;2022-07-23T06:04:08;17.69;88.34
52656;SHT85;35474;51.032;6.998;2022-07-23T06:06:34;17.72;88.38
52656;SHT85;35474;51.032;6.998;2022-07-23T06:09:01;17.85;87.67
52656;SHT85;35474;51.032;6.998;2022-07-23T06:11:28;17.83;87.17
52656;SHT85;35474;51.032;6.998;2022-07-23T06:13:55;17.83;87.60
52656;SHT85;35474;51.032;6.998;2022-07-23T06:16:22;17.91;87.43
52656;SHT85;35474;51.032;6.998;2022-07-23T06:18:48;18.12;87.24
52656;SHT85;35474;51.032;6.998;2022-07-23T06:21:15;18.15;87.55
52656;SHT85;35474;51.032;6.998;2022-07-23T06:24:02;18.17;87.14
52656;SHT85;35474;51.032;6.998;2022-07-23T06:26:28;18.23;86.69
52656;SHT85;35474;51.032;6.998;2022-07-23T06:28:55;18.29;85.97
52656;SHT85;35474;51.032;6.998;2022-07-23T06:33:34;18.22;85.97
52656;SHT85;35474;51.032;6.998;2022-07-23T06:36:01;18.36;86.24
52656;SHT85;35474;51.032;6.998;2022-07-23T06:38:27;18.51;85.16
52656;SHT85;35474;51.032;6.998;2022-07-23T06:40:54;18.48;84.37
52656;SHT85;35474;51.032;6.998;2022-07-23T06:43:20;18.50;83.96
52656;SHT85;35474;51.032;6.998;2022-07-23T06:45:47;18.50;83.62
52656;SHT85;35474;51.032;6.998;2022-07-23T06:48:13;18.50;83.42
52656;SHT85;35474;51.032;6.998;2022-07-23T06:50:40;18.37;83.66
52656;SHT85;35474;51.032;6.998;2022-07-23T06:53:06;18.37;83.95
52656;SHT85;35474;51.032;6.998;2022-07-23T06:55:33;18.43;82.95
52656;SHT85;35474;51.032;6.998;2022-07-23T06:58:04;18.48;82.89
52656;SHT85;35474;51.032;6.998;2022-07-23T07:00:31;18.53;83.12
52656;SHT85;35474;51.032;6.998;2022-07-23T07:02:58;18.70;83.45
52656;SHT85;35474;51.032;6.998;2022-07-23T07:05:25;18.78;83.08
52656;SHT85;35474;51.032;6.998;2022-07-23T07:07:54;18.98;82.72
52656;SHT85;35474;51.032;6.998;2022-07-23T07:10:21;19.05;80.97
52656;SHT85;35474;51.032;6.998;2022-07-23T07:12:48;19.05;80.40
52656;SHT85;35474;51.032;6.998;2022-07-23T07:15:15;19.06;80.11
52656;SHT85;35474;51.032;6.998;2022-07-23T07:17:41;19.15;80.11
52656;SHT85;35474;51.032;6.998;2022-07-23T07:20:08;19.19;79.37
52656;SHT85;35474;51.032;6.998;2022-07-23T07:22:35;19.34;78.61
52656;SHT85;35474;51.032;6.998;2022-07-23T07:25:02;19.45;78.69
52656;SHT85;35474;51.032;6.998;2022-07-23T07:27:29;19.39;76.83
52656;SHT85;35474;51.032;6.998;2022-07-23T07:29:55;19.43;77.23
52656;SHT85;35474;51.032;6.998;2022-07-23T07:32:22;19.63;77.28
52656;SHT85;35474;51.032;6.998;2022-07-23T07:35:09;19.84;75.68
52656;SHT85;35474;51.032;6.998;2022-07-23T07:37:36;20.18;75.76
52656;SHT85;35474;51.032;6.998;2022-07-23T07:40:02;20.14;75.68
52656;SHT85;35474;51.032;6.998;2022-07-23T07:42:29;20.11;76.14
52656;SHT85;35474;51.032;6.998;2022-07-23T07:44:58;20.24;75.50
52656;SHT85;35474;51.032;6.998;2022-07-23T07:47:24;20.20;75.09
52656;SHT85;35474;51.032;6.998;2022-07-23T07:49:51;20.26;75.39
52656;SHT85;35474;51.032;6.998;2022-07-23T07:52:17;20.73;74.81
52656;SHT85;35474;51.032;6.998;2022-07-23T07:54:44;20.48;73.86
52656;SHT85;35474;51.032;6.998;2022-07-23T07:57:11;21.03;73.43
52656;SHT85;35474;51.032;6.998;2022-07-23T07:59:37;20.86;72.18
52656;SHT85;35474;51.032;6.998;2022-07-23T08:02:04;20.82;72.25
52656;SHT85;35474;51.032;6.998;2022-07-23T08:04:30;20.94;71.07
52656;SHT85;35474;51.032;6.998;2022-07-23T08:06:57;21.10;70.37
52656;SHT85;35474;51.032;6.998;2022-07-23T08:09:24;20.80;71.14
52656;SHT85;35474;51.032;6.998;2022-07-23T08:11:50;20.82;71.06
52656;SHT85;35474;51.032;6.998;2022-07-23T08:14:18;20.41;71.71
52656;SHT85;35474;51.032;6.998;2022-07-23T08:16:45;20.65;71.78
52656;SHT85;35474;51.032;6.998;2022-07-23T08:19:31;21.57;69.05
52656;SHT85;35474;51.032;6.998;2022-07-23T08:21:58;20.62;70.46
52656;SHT85;35474;51.032;6.998;2022-07-23T08:24:24;20.52;71.90
52656;SHT85;35474;51.032;6.998;2022-07-23T08:26:51;20.79;71.22
52656;SHT85;35474;51.032;6.998;2022-07-23T08:29:17;21.06;69.99
52656;SHT85;35474;51.032;6.998;2022-07-23T08:31:50;21.54;68.66
52656;SHT85;35474;51.032;6.998;2022-07-23T08:34:17;21.50;68.45
52656;SHT85;35474;51.032;6.998;2022-07-23T08:36:43;21.75;68.13
52656;SHT85;35474;51.032;6.998;2022-07-23T08:39:10;23.62;62.42
52656;SHT85;35474;51.032;6.998;2022-07-23T08:41:37;23.94;60.09
52656;SHT85;35474;51.032;6.998;2022-07-23T08:44:07;25.16;56.14
52656;SHT85;35474;51.032;6.998;2022-07-23T08:46:35;25.98;54.23
52656;SHT85;35474;51.032;6.998;2022-07-23T08:49:08;25.33;54.84
52656;SHT85;35474;51.032;6.998;2022-07-23T08:51:35;24.27;58.36
52656;SHT85;35474;51.032;6.998;2022-07-23T08:54:03;25.55;54.13
52656;SHT85;35474;51.032;6.998;2022-07-23T08:56:31;26.26;52.26
52656;SHT85;35474;51.032;6.998;2022-07-23T08:58:57;26.59;51.05
52656;SHT85;35474;51.032;6.998;2022-07-23T09:01:24;25.99;53.11
52656;SHT85;35474;51.032;6.998;2022-07-23T09:03:51;25.31;53.96
52656;SHT85;35474;51.032;6.998;2022-07-23T09:06:17;23.82;57.56
52656;SHT85;35474;51.032;6.998;2022-07-23T09:08:44;25.60;54.40
52656;SHT85;35474;51.032;6.998;2022-07-23T09:11:13;27.11;50.60
52656;SHT85;35474;51.032;6.998;2022-07-23T09:13:52;27.05;50.12
52656;SHT85;35474;51.032;6.998;2022-07-23T09:16:24;25.37;53.75
52656;SHT85;35474;51.032;6.998;2022-07-23T09:21:37;24.65;55.51
52656;SHT85;35474;51.032;6.998;2022-07-23T09:26:43;24.16;57.31
52656;SHT85;35474;51.032;6.998;2022-07-23T09:29:21;24.95;54.64
52656;SHT85;35474;51.032;6.998;2022-07-23T09:31:50;26.36;51.79
52656;SHT85;35474;51.032;6.998;2022-07-23T09:34:18;27.30;48.83
52656;SHT85;35474;51.032;6.998;2022-07-23T09:36:49;28.47;46.45
52656;SHT85;35474;51.032;6.998;2022-07-23T09:39:30;26.70;49.91
52656;SHT85;35474;51.032;6.998;2022-07-23T09:42:12;27.83;48.38
52656;SHT85;35474;51.032;6.998;2022-07-23T09:44:40;28.12;46.45
52656;SHT85;35474;51.032;6.998;2022-07-23T09:47:08;27.17;47.56
52656;SHT85;35474;51.032;6.998;2022-07-23T09:49:34;28.92;45.24
52656;SHT85;35474;51.032;6.998;2022-07-23T09:52:02;25.40;52.59
52656;SHT85;35474;51.032;6.998;2022-07-23T09:57:08;24.45;55.87
52656;SHT85;35474;51.032;6.998;2022-07-23T09:59:41;24.82;55.76
52656;SHT85;35474;51.032;6.998;2022-07-23T10:02:10;27.62;48.58
52656;SHT85;35474;51.032;6.998;2022-07-23T10:04:38;27.20;48.17
52656;SHT85;35474;51.032;6.998;2022-07-23T10:07:06;27.83;46.64
52656;SHT85;35474;51.032;6.998;2022-07-23T10:09:39;27.88;46.61
52656;SHT85;35474;51.032;6.998;2022-07-23T10:12:13;28.26;46.04
52656;SHT85;35474;51.032;6.998;2022-07-23T10:14:40;29.18;44.08
52656;SHT85;35474;51.032;6.998;2022-07-23T10:17:07;27.44;47.10
52656;SHT85;35474;51.032;6.998;2022-07-23T10:19:34;27.52;46.90
52656;SHT85;35474;51.032;6.998;2022-07-23T10:22:02;28.77;43.86
52656;SHT85;35474;51.032;6.998;2022-07-23T10:30:17;27.97;47.14
52656;SHT85;35474;51.032;6.998;2022-07-23T10:38:13;29.35;42.67
52656;SHT85;35474;51.032;6.998;2022-07-23T10:40:58;28.75;43.01
52656;SHT85;35474;51.032;6.998;2022-07-23T10:43:26;27.27;45.76
52656;SHT85;35474;51.032;6.998;2022-07-23T10:45:54;28.04;44.83
52656;SHT85;35474;51.032;6.998;2022-07-23T10:48:23;28.10;45.32
52656;SHT85;35474;51.032;6.998;2022-07-23T10:56:15;29.51;39.45
52656;SHT85;35474;51.032;6.998;2022-07-23T10:58:46;28.77;39.57
52656;SHT85;35474;51.032;6.998;2022-07-23T11:01:33;29.69;40.16
52656;SHT85;35474;51.032;6.998;2022-07-23T11:04:05;29.16;40.55
52656;SHT85;35474;51.032;6.998;2022-07-23T11:15:21;27.32;46.05
52656;SHT85;35474;51.032;6.998;2022-07-23T11:17:29;29.63;40.49
52656;SHT85;35474;51.032;6.998;2022-07-23T11:22:39;29.20;40.64
52656;SHT85;35474;51.032;6.998;2022-07-23T11:25:07;29.35;41.81
52656;SHT85;35474;51.032;6.998;2022-07-23T11:27:41;28.98;42.17
52656;SHT85;35474;51.032;6.998;2022-07-23T11:30:08;30.01;40.19
52656;SHT85;35474;51.032;6.998;2022-07-23T11:32:37;30.39;40.18
52656;SHT85;35474;51.032;6.998;2022-07-23T11:35:21;30.99;38.59
52656;SHT85;35474;51.032;6.998;2022-07-23T11:37:50;31.27;38.32
52656;SHT85;35474;51.032;6.998;2022-07-23T11:40:20;32.06;36.14
52656;SHT85;35474;51.032;6.998;2022-07-23T11:42:54;30.44;38.90
52656;SHT85;35474;51.032;6.998;2022-07-23T11:45:24;30.49;38.40
52656;SHT85;35474;51.032;6.998;2022-07-23T11:47:52;31.06;36.73
52656;SHT85;35474;51.032;6.998;2022-07-23T11:50:19;31.21;35.52
52656;SHT85;35474;51.032;6.998;2022-07-23T11:52:49;31.68;35.56
52656;SHT85;35474;51.032;6.998;2022-07-23T11:55:16;32.01;34.47
52656;SHT85;35474;51.032;6.998;2022-07-23T11:57:43;32.18;34.44
52656;SHT85;35474;51.032;6.998;2022-07-23T12:00:11;31.50;35.04
52656;SHT85;35474;51.032;6.998;2022-07-23T12:02:45;32.26;33.33
52656;SHT85;35474;51.032;6.998;2022-07-23T12:05:16;32.29;33.05
52656;SHT85;35474;51.032;6.998;2022-07-23T12:07:44;30.20;36.24
52656;SHT85;35474;51.032;6.998;2022-07-23T12:10:27;30.55;37.72
52656;SHT85;35474;51.032;6.998;2022-07-23T12:12:56;29.95;36.41
52656;SHT85;35474;51.032;6.998;2022-07-23T12:15:26;28.21;38.36
52656;SHT85;35474;51.032;6.998;2022-07-23T12:18:01;30.36;36.05
52656;SHT85;35474;51.032;6.998;2022-07-23T12:20:30;31.09;35.94
52656;SHT85;35474;51.032;6.998;2022-07-23T12:22:59;32.22;32.98
52656;SHT85;35474;51.032;6.998;2022-07-23T12:25:29;33.47;31.21
52656;SHT85;35474;51.032;6.998;2022-07-23T12:28:00;31.30;34.37
52656;SHT85;35474;51.032;6.998;2022-07-23T12:30:32;30.84;35.03
52656;SHT85;35474;51.032;6.998;2022-07-23T12:33:00;32.43;33.15
52656;SHT85;35474;51.032;6.998;2022-07-23T12:35:31;31.57;32.50
52656;SHT85;35474;51.032;6.998;2022-07-23T12:38:13;32.16;33.09
52656;SHT85;35474;51.032;6.998;2022-07-23T12:41:04;31.20;32.55
52656;SHT85;35474;51.032;6.998;2022-07-23T12:43:32;29.91;35.19
52656;SHT85;35474;51.032;6.998;2022-07-23T12:48:30;29.93;35.29
52656;SHT85;35474;51.032;6.998;2022-07-23T12:51:05;29.59;36.64
52656;SHT85;35474;51.032;6.998;2022-07-23T12:53:47;31.20;33.95
52656;SHT85;35474;51.032;6.998;2022-07-23T12:56:27;29.67;36.12
52656;SHT85;35474;51.032;6.998;2022-07-23T12:58:56;29.94;36.38
52656;SHT85;35474;51.032;6.998;2022-07-23T13:01:41;29.80;36.87
52656;SHT85;35474;51.032;6.998;2022-07-23T13:04:19;28.74;37.25
52656;SHT85;35474;51.032;6.998;2022-07-23T13:06:50;30.14;36.11
52656;SHT85;35474;51.032;6.998;2022-07-23T13:09:26;30.21;35.78
52656;SHT85;35474;51.032;6.998;2022-07-23T13:11:58;31.37;34.54
52656;SHT85;35474;51.032;6.998;2022-07-23T13:14:25;31.41;33.76
52656;SHT85;35474;51.032;6.998;2022-07-23T13:16:53;30.45;34.92
52656;SHT85;35474;51.032;6.998;2022-07-23T13:19:22;29.12;37.31
52656;SHT85;35474;51.032;6.998;2022-07-23T13:21:51;29.40;36.70
52656;SHT85;35474;51.032;6.998;2022-07-23T13:24:18;28.95;37.76
52656;SHT85;35474;51.032;6.998;2022-07-23T13:26:45;29.81;36.90
52656;SHT85;35474;51.032;6.998;2022-07-23T13:29:13;28.26;39.15
52656;SHT85;35474;51.032;6.998;2022-07-23T13:31:42;29.11;37.64
52656;SHT85;35474;51.032;6.998;2022-07-23T13:34:11;28.54;38.20
52656;SHT85;35474;51.032;6.998;2022-07-23T13:36:38;29.57;36.67
52656;SHT85;35474;51.032;6.998;2022-07-23T13:39:05;30.23;35.20
52656;SHT85;35474;51.032;6.998;2022-07-23T13:41:34;31.29;32.70
52656;SHT85;35474;51.032;6.998;2022-07-23T13:44:02;32.28;32.66
52656;SHT85;35474;51.032;6.998;2022-07-23T13:46:29;32.08;31.75
52656;SHT85;35474;51.032;6.998;2022-07-23T13:48:56;32.39;32.22
52656;SHT85;35474;51.032;6.998;2022-07-23T13:51:22;32.40;32.30
52656;SHT85;35474;51.032;6.998;2022-07-23T13:53:51;32.91;30.82
52656;SHT85;35474;51.032;6.998;2022-07-23T13:56:18;32.67;31.44
52656;SHT85;35474;51.032;6.998;2022-07-23T13:58:45;32.19;31.78
52656;SHT85;35474;51.032;6.998;2022-07-23T14:01:12;29.14;36.21
52656;SHT85;35474;51.032;6.998;2022-07-23T14:03:39;30.13;35.95
52656;SHT85;35474;51.032;6.998;2022-07-23T14:06:06;31.12;33.80
52656;SHT85;35474;51.032;6.998;2022-07-23T14:08:53;31.72;32.07
52656;SHT85;35474;51.032;6.998;2022-07-23T14:11:19;29.18;36.36
52656;SHT85;35474;51.032;6.998;2022-07-23T14:13:46;30.76;34.82
52656;SHT85;35474;51.032;6.998;2022-07-23T14:16:12;31.54;34.02
52656;SHT85;35474;51.032;6.998;2022-07-23T14:18:40;32.19;32.66
52656;SHT85;35474;51.032;6.998;2022-07-23T14:21:09;32.56;31.81
52656;SHT85;35474;51.032;6.998;2022-07-23T14:23:35;32.80;31.74
52656;SHT85;35474;51.032;6.998;2022-07-23T14:26:02;33.14;30.96
52656;SHT85;35474;51.032;6.998;2022-07-23T14:28:31;31.57;32.74
52656;SHT85;35474;51.032;6.998;2022-07-23T14:30:59;30.29;34.70
52656;SHT85;35474;51.032;6.998;2022-07-23T14:33:27;31.40;32.88
52656;SHT85;35474;51.032;6.998;2022-07-23T14:35:53;30.05;35.25
52656;SHT85;35474;51.032;6.998;2022-07-23T14:38:20;30.99;34.12
52656;SHT85;35474;51.032;6.998;2022-07-23T14:40:47;32.56;31.81
52656;SHT85;35474;51.032;6.998;2022-07-23T14:43:13;31.38;34.02
52656;SHT85;35474;51.032;6.998;2022-07-23T14:45:41;31.97;32.06
52656;SHT85;35474;51.032;6.998;2022-07-23T14:48:11;31.03;34.14
52656;SHT85;35474;51.032;6.998;2022-07-23T14:50:38;31.99;33.01
52656;SHT85;35474;51.032;6.998;2022-07-23T14:53:04;32.62;31.74
52656;SHT85;35474;51.032;6.998;2022-07-23T14:55:32;32.33;31.66
52656;SHT85;35474;51.032;6.998;2022-07-23T14:57:59;32.46;32.57
52656;SHT85;35474;51.032;6.998;2022-07-23T15:00:26;31.98;31.76
52656;SHT85;35474;51.032;6.998;2022-07-23T15:02:53;30.49;35.06
52656;SHT85;35474;51.032;6.998;2022-07-23T15:05:21;32.01;32.65
52656;SHT85;35474;51.032;6.998;2022-07-23T15:07:48;30.72;33.73
52656;SHT85;35474;51.032;6.998;2022-07-23T15:10:15;31.34;33.21
52656;SHT85;35474;51.032;6.998;2022-07-23T15:13:02;30.73;33.65
52656;SHT85;35474;51.032;6.998;2022-07-23T15:15:30;29.02;36.41
52656;SHT85;35474;51.032;6.998;2022-07-23T15:17:57;28.99;36.20
52656;SHT85;35474;51.032;6.998;2022-07-23T15:20:24;29.80;36.31
52656;SHT85;35474;51.032;6.998;2022-07-23T15:23:04;30.52;34.14
52656;SHT85;35474;51.032;6.998;2022-07-23T15:25:33;30.78;34.46
52656;SHT85;35474;51.032;6.998;2022-07-23T15:28:01;28.89;36.69
52656;SHT85;35474;51.032;6.998;2022-07-23T15:30:28;29.16;36.59
52656;SHT85;35474;51.032;6.998;2022-07-23T15:32:55;30.34;35.62
52656;SHT85;35474;51.032;6.998;2022-07-23T15:35:23;30.71;34.45
52656;SHT85;35474;51.032;6.998;2022-07-23T15:37:50;31.27;34.50
52656;SHT85;35474;51.032;6.998;2022-07-23T15:40:17;30.79;35.27
52656;SHT85;35474;51.032;6.998;2022-07-23T15:42:44;30.08;35.53
52656;SHT85;35474;51.032;6.998;2022-07-23T15:45:10;29.49;36.44
52656;SHT85;35474;51.032;6.998;2022-07-23T15:47:37;29.65;36.30
52656;SHT85;35474;51.032;6.998;2022-07-23T15:50:03;30.49;35.48
52656;SHT85;35474;51.032;6.998;2022-07-23T15:52:30;30.80;34.68
52656;SHT85;35474;51.032;6.998;2022-07-23T15:54:57;31.17;34.34
52656;SHT85;35474;51.032;6.998;2022-07-23T15:57:24;31.03;33.81
52656;SHT85;35474;51.032;6.998;2022-07-23T15:59:51;30.04;34.11
52656;SHT85;35474;51.032;6.998;2022-07-23T16:02:17;30.58;33.82
52656;SHT85;35474;51.032;6.998;2022-07-23T16:04:47;30.92;33.78
52656;SHT85;35474;51.032;6.998;2022-07-23T16:07:13;30.97;33.74
52656;SHT85;35474;51.032;6.998;2022-07-23T16:09:41;30.94;33.60
52656;SHT85;35474;51.032;6.998;2022-07-23T16:12:07;31.40;32.68
52656;SHT85;35474;51.032;6.998;2022-07-23T16:14:35;30.39;34.62
52656;SHT85;35474;51.032;6.998;2022-07-23T16:17:02;29.54;35.30